createdAt,value
2022-09-03T00:03:05.657Z,3.10
2022-09-03T00:06:17.861Z,3.27
2022-09-03T00:09:27.096Z,3.30
2022-09-03T00:12:39.381Z,3.40
2022-09-03T00:15:42.765Z,3.23
2022-09-03T00:18:51.115Z,2.70
2022-09-03T00:21:59.958Z,3.00
2022-09-03T00:25:07.186Z,2.90
2022-09-03T00:28:16.193Z,3.33
2022-09-03T00:31:27.531Z,3.17
2022-09-03T00:34:39.255Z,4.07
2022-09-03T00:37:43.618Z,3.37
2022-09-03T00:41:03.501Z,3.53
2022-09-03T00:44:30.783Z,3.60
2022-09-03T00:47:51.005Z,4.53
2022-09-03T00:51:12.069Z,4.57
2022-09-03T00:54:31.081Z,4.13
2022-09-03T00:57:48.662Z,4.70
2022-09-03T01:00:53.514Z,3.10
2022-09-03T01:04:08.632Z,2.90
2022-09-03T01:07:21.974Z,2.73
2022-09-03T01:10:36.735Z,3.27
2022-09-03T01:13:47.446Z,2.77
2022-09-03T01:16:57.155Z,3.73
2022-09-03T01:20:15.804Z,2.80
2022-09-03T01:24:19.076Z,4.53
2022-09-03T01:27:39.944Z,3.63
2022-09-03T01:30:50.306Z,3.80
2022-09-03T01:34:06.981Z,3.40
2022-09-03T01:37:19.754Z,3.70
2022-09-03T01:40:35.098Z,3.90
2022-09-03T01:43:51.015Z,3.40
2022-09-03T01:47:08.868Z,3.53
2022-09-03T01:50:27.217Z,3.47
2022-09-03T01:53:47.174Z,3.57
2022-09-03T01:57:35.790Z,3.10
2022-09-03T02:00:43.878Z,3.33
2022-09-03T02:03:49.993Z,3.33
2022-09-03T02:06:54.502Z,3.37
2022-09-03T02:09:57.541Z,3.50
2022-09-03T02:13:10.389Z,3.50
2022-09-03T02:16:17.368Z,2.70
2022-09-03T02:19:21.761Z,3.40
2022-09-03T02:22:25.135Z,4.03
2022-09-03T02:25:36.556Z,3.33
2022-09-03T02:28:39.711Z,3.30
2022-09-03T02:31:42.705Z,3.43
2022-09-03T02:34:47.869Z,4.77
2022-09-03T02:37:50.832Z,4.80
2022-09-03T02:40:54.799Z,4.73
2022-09-03T02:44:04.339Z,3.37
2022-09-03T02:47:10.008Z,6.17
2022-09-03T02:50:17.498Z,3.17
2022-09-03T02:53:21.289Z,3.00
2022-09-03T02:56:27.993Z,3.30
2022-09-03T02:59:30.988Z,3.37
2022-09-03T03:02:34.016Z,3.30
2022-09-03T03:05:45.047Z,3.60
2022-09-03T03:08:48.416Z,3.60
2022-09-03T03:11:51.590Z,3.43
2022-09-03T03:14:55.033Z,3.70
2022-09-03T03:17:58.184Z,2.70
2022-09-03T03:21:07.110Z,3.27
2022-09-03T03:24:11.187Z,3.83
2022-09-03T03:27:14.935Z,4.00
2022-09-03T03:30:19.696Z,3.37
2022-09-03T03:33:22.853Z,2.60
2022-09-03T03:36:30.496Z,3.50
2022-09-03T03:39:33.553Z,3.50
2022-09-03T03:42:36.662Z,3.90
2022-09-03T03:45:39.674Z,3.47
2022-09-03T03:48:42.732Z,3.17
2022-09-03T03:51:47.102Z,3.60
2022-09-03T03:54:50.758Z,3.10
2022-09-03T03:57:54.199Z,3.07
2022-09-03T04:00:57.227Z,3.43
2022-09-03T04:04:00.995Z,3.40
2022-09-03T04:07:05.759Z,3.53
2022-09-03T04:10:10.513Z,2.93
2022-09-03T04:13:14.191Z,3.13
2022-09-03T04:16:19.836Z,4.33
2022-09-03T04:19:23.883Z,3.00
2022-09-03T04:22:30.522Z,3.20
2022-09-03T04:25:33.757Z,3.37
2022-09-03T04:28:37.368Z,3.50
2022-09-03T04:32:00.637Z,4.27
2022-09-03T04:35:03.839Z,3.37
2022-09-03T04:38:08.241Z,3.83
2022-09-03T04:41:14.055Z,5.30
2022-09-03T04:44:17.113Z,3.93
2022-09-03T04:47:20.084Z,4.07
2022-09-03T04:50:23.607Z,4.57
2022-09-03T04:53:38.834Z,3.60
2022-09-03T04:56:41.843Z,3.50
2022-09-03T04:59:44.895Z,3.90
2022-09-03T05:02:49.301Z,3.57
2022-09-03T05:05:56.768Z,4.80
2022-09-03T05:09:01.673Z,3.83
2022-09-03T05:12:05.122Z,4.83
2022-09-03T05:15:09.800Z,4.33
2022-09-03T05:18:13.508Z,5.00
2022-09-03T05:21:18.839Z,3.53
2022-09-03T05:24:24.673Z,4.27
2022-09-03T05:27:27.935Z,3.93
2022-09-03T05:30:31.941Z,3.90
2022-09-03T05:33:36.165Z,3.97
2022-09-03T05:36:40.196Z,3.73
2022-09-03T05:39:44.610Z,3.57
2022-09-03T05:42:47.804Z,3.90
2022-09-03T05:45:50.870Z,6.07
2022-09-03T05:48:54.116Z,5.80
2022-09-03T05:51:57.373Z,4.67
2022-09-03T05:55:02.092Z,4.63
2022-09-03T05:58:06.465Z,5.17
2022-09-03T06:01:14.264Z,4.10
2022-09-03T06:04:17.870Z,4.73
2022-09-03T06:07:20.965Z,4.57
2022-09-03T06:10:28.706Z,5.40
2022-09-03T06:13:36.556Z,4.10
2022-09-03T06:16:42.441Z,3.87
2022-09-03T06:19:45.597Z,4.50
2022-09-03T06:22:52.946Z,3.63
2022-09-03T06:26:06.843Z,3.70
2022-09-03T06:29:10.612Z,3.60
2022-09-03T06:32:14.581Z,3.90
2022-09-03T06:35:17.911Z,5.03
2022-09-03T06:38:21.701Z,3.73
2022-09-03T06:41:30.811Z,6.00
2022-09-03T06:44:33.853Z,4.60
2022-09-03T06:47:37.228Z,3.90
2022-09-03T06:50:40.232Z,3.57
2022-09-03T06:53:45.514Z,3.60
2022-09-03T06:56:50.061Z,4.33
2022-09-03T06:59:54.711Z,3.93
2022-09-03T07:02:59.783Z,3.97
2022-09-03T07:06:03.259Z,8.33
2022-09-03T07:09:06.576Z,8.23
2022-09-03T07:12:15.841Z,4.03
2022-09-03T07:15:20.011Z,4.03
2022-09-03T07:18:23.087Z,3.80
2022-09-03T07:21:28.208Z,4.28
2022-09-03T07:24:31.363Z,3.60
2022-09-03T07:27:37.763Z,3.78
2022-09-03T07:30:40.744Z,4.28
2022-09-03T07:33:44.078Z,4.73
2022-09-03T07:36:51.165Z,5.35
2022-09-03T07:39:54.548Z,3.87
2022-09-03T07:43:04.236Z,4.13
2022-09-03T07:46:08.424Z,3.38
2022-09-03T07:49:11.442Z,3.78
2022-09-03T07:52:14.911Z,5.38
2022-09-03T07:55:21.765Z,5.70
2022-09-03T07:58:26.449Z,3.80
2022-09-03T08:01:31.384Z,3.20
2022-09-03T08:04:36.104Z,3.90
2022-09-03T08:07:39.297Z,3.10
2022-09-03T08:10:45.254Z,3.50
2022-09-03T08:13:57.642Z,3.22
2022-09-03T08:17:00.878Z,3.58
2022-09-03T08:20:05.538Z,3.03
2022-09-03T08:23:08.601Z,2.97
2022-09-03T08:26:12.715Z,3.05
2022-09-03T08:29:17.431Z,3.10
2022-09-03T08:32:21.023Z,2.72
2022-09-03T08:35:24.487Z,3.28
2022-09-03T08:38:27.963Z,3.00
2022-09-03T08:41:50.612Z,3.30
2022-09-03T08:44:58.566Z,3.08
2022-09-03T08:48:07.215Z,3.35
2022-09-03T08:51:11.604Z,3.60
2022-09-03T08:54:15.103Z,3.00
2022-09-03T08:57:20.843Z,3.30
2022-09-03T09:00:25.344Z,3.58
2022-09-03T09:03:42.378Z,2.70
2022-09-03T09:06:51.878Z,3.58
2022-09-03T09:10:02.187Z,3.78
2022-09-03T09:13:17.443Z,3.10
2022-09-03T09:16:32.429Z,2.92
2022-09-03T09:19:44.138Z,2.85
2022-09-03T09:22:52.196Z,3.97
2022-09-03T09:25:57.642Z,3.33
2022-09-03T09:29:06.394Z,2.83
2022-09-03T09:32:15.478Z,2.60
2022-09-03T09:35:19.960Z,3.08
2022-09-03T09:38:30.575Z,3.13
2022-09-03T09:41:33.607Z,2.40
2022-09-03T09:44:36.923Z,2.75
2022-09-03T09:47:42.499Z,2.72
2022-09-03T09:50:46.070Z,2.03
2022-09-03T09:53:50.111Z,2.67
2022-09-03T09:57:02.408Z,2.70
2022-09-03T10:00:10.664Z,2.20
2022-09-03T10:03:18.233Z,2.58
2022-09-03T10:06:41.813Z,2.50
2022-09-03T10:09:45.024Z,3.17
2022-09-03T10:12:52.550Z,2.67
2022-09-03T10:16:04.053Z,1.88
2022-09-03T10:19:18.199Z,2.22
2022-09-03T10:22:26.252Z,2.60
2022-09-03T10:26:04.528Z,2.08
2022-09-03T10:29:09.349Z,2.47
2022-09-03T10:32:39.381Z,2.53
2022-09-03T10:35:51.648Z,2.72
2022-09-03T10:39:05.627Z,2.33
2022-09-03T10:42:31.403Z,2.35
2022-09-03T10:45:42.429Z,2.10
2022-09-03T10:49:13.809Z,2.88
2022-09-03T10:52:29.553Z,2.47
2022-09-03T10:55:43.678Z,2.70
2022-09-03T10:59:06.089Z,2.53
2022-09-03T11:02:31.034Z,2.47
2022-09-03T11:05:39.252Z,2.60
2022-09-03T11:08:50.731Z,2.60
2022-09-03T11:11:58.943Z,2.53
2022-09-03T11:15:05.911Z,2.30
2022-09-03T11:18:20.196Z,2.50
2022-09-03T11:21:29.374Z,2.20
2022-09-03T11:24:37.306Z,2.30
2022-09-03T11:27:58.880Z,2.72
2022-09-03T11:31:25.270Z,2.38
2022-09-03T11:34:33.889Z,2.90
2022-09-03T11:37:53.022Z,2.47
2022-09-03T11:41:04.701Z,2.10
2022-09-03T11:44:37.742Z,2.88
2022-09-03T11:47:53.795Z,3.42
2022-09-03T11:50:57.343Z,2.35
2022-09-03T11:54:02.909Z,2.28
2022-09-03T11:57:14.983Z,2.40
2022-09-03T12:00:22.601Z,3.03
2022-09-03T12:03:30.012Z,2.08
2022-09-03T12:07:07.685Z,2.70
2022-09-03T12:10:35.896Z,1.92
2022-09-03T12:13:52.116Z,2.50
2022-09-03T12:17:12.693Z,2.67
2022-09-03T12:20:17.250Z,2.55
2022-09-03T12:23:30.807Z,2.30
2022-09-03T12:26:42.136Z,2.50
2022-09-03T12:29:56.761Z,2.20
2022-09-03T12:33:08.532Z,2.17
2022-09-03T12:36:11.642Z,2.10
2022-09-03T12:39:17.092Z,2.20
2022-09-03T12:42:25.987Z,1.90
2022-09-03T12:46:09.972Z,2.60
2022-09-03T12:52:30.835Z,2.80
2022-09-03T12:55:40.313Z,2.80
2022-09-03T12:58:52.457Z,2.63
2022-09-03T13:02:01.850Z,2.70
2022-09-03T13:05:07.738Z,2.25
2022-09-03T13:08:16.239Z,2.08
2022-09-03T13:11:22.335Z,2.55
2022-09-03T13:14:28.272Z,2.40
2022-09-03T13:17:54.245Z,2.63
2022-09-03T13:21:13.104Z,2.30
2022-09-03T13:24:41.481Z,2.60
2022-09-03T13:27:56.030Z,2.50
2022-09-03T13:31:06.549Z,2.70
2022-09-03T13:34:17.227Z,2.42
2022-09-03T13:37:28.719Z,2.63
2022-09-03T13:40:39.714Z,1.85
2022-09-03T13:43:50.655Z,1.90
2022-09-03T13:46:56.650Z,2.08
2022-09-03T13:50:23.105Z,2.10
2022-09-03T13:53:41.233Z,2.33
2022-09-03T13:56:56.313Z,2.13
2022-09-03T14:00:06.872Z,2.30
2022-09-03T14:03:18.160Z,1.80
2022-09-03T14:06:40.259Z,2.42
2022-09-03T14:09:56.005Z,2.20
2022-09-03T14:13:13.475Z,2.35
2022-09-03T14:16:29.750Z,2.60
2022-09-03T14:19:42.689Z,2.42
2022-09-03T14:22:55.321Z,2.50
2022-09-03T14:26:02.482Z,2.47
2022-09-03T14:29:15.048Z,2.38
2022-09-03T14:32:32.554Z,2.67
2022-09-03T14:35:51.657Z,2.20
2022-09-03T14:39:32.499Z,2.10
2022-09-03T14:42:58.800Z,2.17
2022-09-03T14:46:24.375Z,1.90
2022-09-03T14:49:53.118Z,2.08
2022-09-03T14:53:24.613Z,2.38
2022-09-03T14:56:45.517Z,2.20
2022-09-03T15:00:06.869Z,2.30
2022-09-03T15:03:39.079Z,2.20
2022-09-03T15:06:58.428Z,2.20
2022-09-03T15:10:16.969Z,2.50
2022-09-03T15:13:26.323Z,2.35
2022-09-03T15:16:45.470Z,2.20
2022-09-03T15:20:14.892Z,2.47
2022-09-03T15:23:40.091Z,2.03
2022-09-03T15:27:06.891Z,2.30
2022-09-03T15:30:13.734Z,2.47
2022-09-03T15:33:29.690Z,2.40
2022-09-03T15:36:41.536Z,2.58
2022-09-03T15:39:47.149Z,2.50
2022-09-03T15:42:53.975Z,1.98
2022-09-03T15:46:01.938Z,2.70
2022-09-03T15:49:19.554Z,2.15
2022-09-03T15:52:34.319Z,2.70
2022-09-03T15:55:41.351Z,2.72
2022-09-03T15:58:54.008Z,2.28
2022-09-03T16:02:10.894Z,2.38
2022-09-03T16:05:19.440Z,2.70
2022-09-03T16:08:29.511Z,2.85
2022-09-03T16:11:41.823Z,2.63
2022-09-03T16:14:52.540Z,2.70
2022-09-03T16:18:04.088Z,2.58
2022-09-03T16:21:14.037Z,2.90
2022-09-03T16:24:23.535Z,3.10
2022-09-03T16:27:32.624Z,2.60
2022-09-03T16:30:53.979Z,2.75
2022-09-03T16:34:08.510Z,2.92
2022-09-03T16:37:27.508Z,2.70
2022-09-03T16:40:40.416Z,2.83
2022-09-03T16:43:48.181Z,3.30
2022-09-03T16:47:03.005Z,3.15
2022-09-03T16:50:27.788Z,2.90
2022-09-03T16:53:51.047Z,2.88
2022-09-03T16:57:11.000Z,3.00
2022-09-03T17:00:16.427Z,2.90
2022-09-03T17:03:56.764Z,3.17
2022-09-03T17:07:20.633Z,3.40
2022-09-03T17:10:34.266Z,4.68
2022-09-03T17:13:51.326Z,4.68
2022-09-03T17:17:06.296Z,4.43
2022-09-03T17:20:20.015Z,3.58
2022-09-03T17:23:50.080Z,3.25
2022-09-03T17:27:07.352Z,3.20
2022-09-03T17:30:18.706Z,3.33
2022-09-03T17:33:53.489Z,3.45
2022-09-03T17:37:08.937Z,3.95
2022-09-03T17:40:28.659Z,3.55
2022-09-03T17:43:43.995Z,4.13
2022-09-03T17:46:53.285Z,3.63
2022-09-03T17:50:01.611Z,3.83
2022-09-03T17:53:13.279Z,3.50
2022-09-03T17:56:26.542Z,3.97
2022-09-03T17:59:50.761Z,4.20
2022-09-03T18:02:59.943Z,5.43
2022-09-03T18:06:09.987Z,5.55
2022-09-03T18:09:26.171Z,4.95
2022-09-03T18:12:42.059Z,5.22
2022-09-03T18:15:54.205Z,4.72
2022-09-03T18:19:03.827Z,4.15
2022-09-03T18:22:25.076Z,4.63
2022-09-03T18:25:48.839Z,7.03
2022-09-03T18:29:16.419Z,4.32
2022-09-03T18:32:37.969Z,3.92
2022-09-03T18:35:58.572Z,3.53
2022-09-03T18:39:30.111Z,4.45
2022-09-03T18:43:03.512Z,4.45
2022-09-03T18:47:47.735Z,4.65
2022-09-03T18:50:23.184Z,4.80
2022-09-03T18:53:54.447Z,4.55
2022-09-03T18:57:17.591Z,5.05
2022-09-03T19:00:38.581Z,3.70
2022-09-03T19:04:17.376Z,4.63
2022-09-03T19:07:47.085Z,5.05
2022-09-03T19:11:14.098Z,5.10
2022-09-03T19:14:48.317Z,4.45
2022-09-03T19:18:37.421Z,3.80
2022-09-03T19:22:06.476Z,4.28
2022-09-03T19:25:31.986Z,4.18
2022-09-03T19:29:00.417Z,3.75
2022-09-03T19:32:30.572Z,3.85
2022-09-03T19:35:59.869Z,4.07
2022-09-03T19:39:45.344Z,4.43
2022-09-03T19:43:16.163Z,4.35
2022-09-03T19:46:49.234Z,4.03
2022-09-03T19:50:22.633Z,4.88
2022-09-03T19:53:43.987Z,3.78
2022-09-03T19:57:07.591Z,3.97
2022-09-03T20:00:32.911Z,4.07
2022-09-03T20:03:54.693Z,4.53
2022-09-03T20:07:17.221Z,4.82
2022-09-03T20:10:23.292Z,4.65
2022-09-03T20:13:27.877Z,4.30
2022-09-03T20:16:38.470Z,3.53
2022-09-03T20:20:00.566Z,4.38
2022-09-03T20:23:12.780Z,4.82
2022-09-03T20:26:32.337Z,4.65
2022-09-03T20:29:59.932Z,4.00
2022-09-03T20:33:32.252Z,4.03
2022-09-03T20:36:50.922Z,4.72
2022-09-03T20:40:28.830Z,4.32
2022-09-03T20:43:56.327Z,3.80
2022-09-03T20:47:17.150Z,3.92
2022-09-03T20:50:40.119Z,5.32
2022-09-03T20:54:03.636Z,4.50
2022-09-03T20:57:27.216Z,4.30
2022-09-03T21:00:49.170Z,4.28
2022-09-03T21:04:04.457Z,3.83
2022-09-03T21:07:18.347Z,4.63
2022-09-03T21:10:31.821Z,3.97
2022-09-03T21:13:44.847Z,4.07
2022-09-03T21:17:04.527Z,3.90
2022-09-03T21:20:21.824Z,3.80
2022-09-03T21:23:30.324Z,3.92
2022-09-03T21:26:41.748Z,3.72
2022-09-03T21:29:58.494Z,4.03
2022-09-03T21:33:09.563Z,3.65
2022-09-03T21:36:17.795Z,3.65
2022-09-03T21:39:32.228Z,3.85
2022-09-03T21:42:42.580Z,3.80
2022-09-03T21:45:53.302Z,4.00
2022-09-03T21:49:00.643Z,3.58
2022-09-03T21:52:09.734Z,3.88
2022-09-03T21:55:23.207Z,3.65
2022-09-03T21:58:50.674Z,3.30
2022-09-03T22:02:04.616Z,4.00
2022-09-03T22:05:09.034Z,3.50
2022-09-03T22:08:25.213Z,3.35
2022-09-03T22:11:34.044Z,3.65
2022-09-03T22:14:48.173Z,3.78
2022-09-03T22:17:57.102Z,3.22
2022-09-03T22:21:13.231Z,3.58
2022-09-03T22:24:23.434Z,2.95
2022-09-03T22:27:39.237Z,3.47
2022-09-03T22:30:52.163Z,3.00
2022-09-03T22:34:06.299Z,3.30
2022-09-03T22:37:20.245Z,3.30
2022-09-03T22:40:30.292Z,2.42
2022-09-03T22:43:38.790Z,3.30
2022-09-03T22:46:50.095Z,3.22
2022-09-03T22:50:04.632Z,3.83
2022-09-03T22:53:34.378Z,3.10
2022-09-03T22:56:42.588Z,2.88
2022-09-03T22:59:55.440Z,2.92
2022-09-03T23:03:08.103Z,2.97
2022-09-03T23:06:19.448Z,3.47
2022-09-03T23:09:26.350Z,3.45
2022-09-03T23:12:38.488Z,3.45
2022-09-03T23:15:43.269Z,3.55
2022-09-03T23:18:47.968Z,3.22
2022-09-03T23:21:56.188Z,2.97
2022-09-03T23:25:05.546Z,2.90
2022-09-03T23:28:17.675Z,3.50
2022-09-03T23:31:24.483Z,3.72
2022-09-03T23:34:28.582Z,3.97
2022-09-03T23:38:02.704Z,4.53
2022-09-03T23:41:11.348Z,4.50
2022-09-03T23:44:38.530Z,4.30
2022-09-03T23:47:45.750Z,4.85
2022-09-03T23:51:02.923Z,5.00
2022-09-03T23:54:14.480Z,3.55
2022-09-03T23:57:25.210Z,3.72
